createdAt,value
2024-05-09T00:00:46.043Z,12.90
2024-05-09T00:03:13.488Z,13.00
2024-05-09T00:05:41.873Z,13.10
2024-05-09T00:08:10.222Z,13.00
2024-05-09T00:10:41.056Z,13.00
2024-05-09T00:13:10.503Z,13.00
2024-05-09T00:15:38.276Z,12.90
2024-05-09T00:18:07.858Z,13.10
2024-05-09T00:20:39.502Z,13.10
2024-05-09T00:23:12.864Z,13.00
2024-05-09T00:25:44.567Z,13.00
2024-05-09T00:28:12.829Z,13.10
2024-05-09T00:30:40.228Z,13.00
2024-05-09T00:33:11.738Z,13.10
2024-05-09T00:35:39.919Z,13.10
2024-05-09T00:38:07.245Z,13.00
2024-05-09T00:40:39.930Z,13.10
2024-05-09T00:43:14.294Z,13.10
2024-05-09T00:45:42.811Z,13.00
2024-05-09T00:48:14.308Z,13.00
2024-05-09T00:50:45.952Z,13.00
2024-05-09T00:53:15.852Z,13.00
2024-05-09T00:55:44.150Z,13.10
2024-05-09T00:58:14.382Z,13.00
2024-05-09T01:00:44.899Z,13.00
2024-05-09T01:03:14.089Z,13.00
2024-05-09T01:05:43.417Z,13.10
2024-05-09T01:08:14.548Z,12.90
2024-05-09T01:10:44.983Z,12.90
2024-05-09T01:13:13.773Z,12.80
2024-05-09T01:15:41.642Z,12.70
2024-05-09T01:18:12.148Z,12.60
2024-05-09T01:20:43.791Z,12.70
2024-05-09T01:23:15.158Z,12.80
2024-05-09T01:25:44.632Z,12.70
2024-05-09T01:28:12.362Z,12.50
2024-05-09T01:30:39.471Z,12.40
2024-05-09T01:33:09.450Z,12.40
2024-05-09T01:35:41.666Z,12.40
2024-05-09T01:38:12.321Z,12.30
2024-05-09T01:40:40.433Z,12.40
2024-05-09T01:43:12.090Z,12.50
2024-05-09T01:45:40.344Z,12.40
2024-05-09T01:48:08.566Z,12.40
2024-05-09T01:50:40.247Z,12.40
2024-05-09T01:53:11.710Z,12.40
2024-05-09T01:55:39.520Z,12.60
2024-05-09T01:58:07.487Z,12.50
2024-05-09T02:00:40.116Z,12.50
2024-05-09T02:03:16.027Z,12.60
2024-05-09T02:05:50.257Z,12.70
2024-05-09T02:08:19.989Z,12.70
2024-05-09T02:10:48.339Z,12.80
2024-05-09T02:13:17.443Z,13.00
2024-05-09T02:15:44.749Z,12.90
2024-05-09T02:18:12.618Z,13.00
2024-05-09T02:20:41.610Z,13.10
2024-05-09T02:23:10.004Z,13.10
2024-05-09T02:25:37.551Z,13.10
2024-05-09T02:28:05.011Z,13.20
2024-05-09T02:30:40.236Z,13.20
2024-05-09T02:33:13.828Z,13.20
2024-05-09T02:35:43.107Z,13.30
2024-05-09T02:38:11.864Z,13.30
2024-05-09T02:40:40.137Z,13.30
2024-05-09T02:43:09.964Z,13.40
2024-05-09T02:45:39.691Z,13.40
2024-05-09T02:48:10.219Z,13.40
2024-05-09T02:50:39.612Z,13.40
2024-05-09T02:53:08.417Z,13.50
2024-05-09T02:55:36.250Z,13.50
2024-05-09T02:58:03.362Z,13.60
2024-05-09T03:00:38.252Z,13.60
2024-05-09T03:03:10.109Z,13.60
2024-05-09T03:05:39.777Z,13.50
2024-05-09T03:08:07.714Z,13.50
2024-05-09T03:10:36.910Z,13.60
2024-05-09T03:13:11.677Z,13.60
2024-05-09T03:15:39.273Z,13.60
2024-05-09T03:18:07.595Z,13.70
2024-05-09T03:20:36.343Z,13.60
2024-05-09T03:23:05.823Z,13.60
2024-05-09T03:25:34.242Z,13.60
2024-05-09T03:28:01.771Z,13.60
2024-05-09T03:30:36.379Z,13.60
2024-05-09T03:33:13.874Z,13.60
2024-05-09T03:35:42.278Z,13.50
2024-05-09T03:38:09.851Z,13.50
2024-05-09T03:40:48.015Z,13.50
2024-05-09T03:43:15.692Z,13.50
2024-05-09T03:45:44.010Z,13.50
2024-05-09T03:48:11.988Z,13.60
2024-05-09T03:50:42.677Z,13.50
2024-05-09T03:53:14.283Z,13.70
2024-05-09T03:55:42.000Z,13.70
2024-05-09T03:58:09.630Z,13.70
2024-05-09T04:00:39.426Z,13.70
2024-05-09T04:03:10.838Z,13.60
2024-05-09T04:05:41.880Z,13.60
2024-05-09T04:08:14.260Z,13.60
2024-05-09T04:10:42.014Z,13.60
2024-05-09T04:13:10.538Z,13.60
2024-05-09T04:15:37.584Z,13.60
2024-05-09T04:18:04.914Z,13.60
2024-05-09T04:20:38.085Z,13.60
2024-05-09T04:23:11.797Z,13.70
2024-05-09T04:25:43.486Z,13.70
2024-05-09T04:28:11.017Z,13.60
2024-05-09T04:30:40.865Z,13.60
2024-05-09T04:33:12.280Z,13.60
2024-05-09T04:35:45.217Z,13.50
2024-05-09T04:38:14.409Z,13.50
2024-05-09T04:40:42.051Z,13.60
2024-05-09T04:43:16.231Z,13.60
2024-05-09T04:45:43.457Z,13.70
2024-05-09T04:48:11.072Z,13.70
2024-05-09T04:50:39.635Z,13.70
2024-05-09T04:53:15.089Z,13.60
2024-05-09T04:55:42.412Z,13.60
2024-05-09T04:58:10.290Z,13.60
2024-05-09T05:00:41.624Z,13.70
2024-05-09T05:03:14.320Z,13.80
2024-05-09T05:05:44.563Z,13.80
2024-05-09T05:08:17.779Z,13.70
2024-05-09T05:10:46.972Z,13.70
2024-05-09T05:13:22.742Z,13.70
2024-05-09T05:15:53.591Z,13.90
2024-05-09T05:18:21.420Z,13.80
2024-05-09T05:20:49.329Z,13.80
2024-05-09T05:23:20.059Z,13.80
2024-05-09T05:25:48.849Z,13.80
2024-05-09T05:28:17.129Z,13.90
2024-05-09T05:30:44.788Z,13.90
2024-05-09T05:33:14.323Z,13.80
2024-05-09T05:35:42.364Z,13.80
2024-05-09T05:38:11.360Z,13.80
2024-05-09T05:40:40.017Z,13.80
2024-05-09T05:43:09.898Z,13.90
2024-05-09T05:45:37.735Z,13.90
2024-05-09T05:48:06.541Z,13.90
2024-05-09T05:50:37.358Z,13.90
2024-05-09T05:53:10.347Z,14.00
2024-05-09T05:55:41.232Z,14.00
2024-05-09T05:58:11.894Z,14.00
2024-05-09T06:00:41.189Z,14.00
2024-05-09T06:03:10.538Z,14.00
2024-05-09T06:05:44.107Z,14.30
2024-05-09T06:08:12.412Z,14.30
2024-05-09T06:10:41.078Z,14.40
2024-05-09T06:13:11.799Z,14.30
2024-05-09T06:15:40.523Z,14.40
2024-05-09T06:18:10.567Z,14.30
2024-05-09T06:20:40.270Z,14.30
2024-05-09T06:23:08.358Z,14.20
2024-05-09T06:25:36.643Z,14.20
2024-05-09T06:28:04.423Z,14.30
2024-05-09T06:30:40.605Z,14.50
2024-05-09T06:33:12.512Z,14.60
2024-05-09T06:35:41.904Z,14.60
2024-05-09T06:38:09.830Z,14.70
2024-05-09T06:40:40.687Z,14.70
2024-05-09T06:43:13.768Z,14.70
2024-05-09T06:45:41.251Z,14.70
2024-05-09T06:48:10.040Z,14.70
2024-05-09T06:50:39.363Z,14.70
2024-05-09T06:53:08.605Z,14.70
2024-05-09T06:55:37.849Z,14.80
2024-05-09T06:58:09.637Z,15.20
2024-05-09T07:00:39.913Z,15.10
2024-05-09T07:03:16.671Z,15.10
2024-05-09T07:05:47.082Z,15.10
2024-05-09T07:08:15.838Z,15.20
2024-05-09T07:10:44.056Z,15.20
2024-05-09T07:13:12.748Z,15.20
2024-05-09T07:15:41.217Z,15.30
2024-05-09T07:18:18.010Z,15.60
2024-05-09T07:20:47.417Z,15.80
2024-05-09T07:23:15.948Z,15.90
2024-05-09T07:25:43.235Z,15.90
2024-05-09T07:28:21.132Z,15.80
2024-05-09T07:30:48.711Z,15.70
2024-05-09T07:33:17.614Z,15.80
2024-05-09T07:35:45.034Z,16.00
2024-05-09T07:38:12.474Z,15.80
2024-05-09T07:40:41.748Z,16.00
2024-05-09T07:43:14.591Z,16.10
2024-05-09T07:45:51.140Z,16.20
2024-05-09T07:52:37.575Z,16.10
2024-05-09T07:53:47.261Z,16.30
2024-05-09T07:56:19.694Z,16.30
2024-05-09T07:58:51.013Z,16.60
2024-05-09T08:01:18.782Z,16.80
2024-05-09T08:03:46.526Z,17.10
2024-05-09T08:06:13.949Z,17.10
2024-05-09T08:08:41.251Z,17.30
2024-05-09T08:11:08.495Z,17.50
2024-05-09T08:13:35.716Z,17.40
2024-05-09T08:16:02.823Z,17.70
2024-05-09T08:18:30.099Z,17.90
2024-05-09T08:20:58.472Z,18.10
2024-05-09T08:23:25.639Z,18.00
2024-05-09T08:25:55.910Z,18.30
2024-05-09T08:28:23.478Z,18.40
2024-05-09T08:30:50.813Z,18.20
2024-05-09T08:33:18.171Z,18.40
2024-05-09T08:35:45.458Z,18.70
2024-05-09T08:38:12.663Z,18.60
2024-05-09T08:40:41.347Z,18.50
2024-05-09T08:43:11.917Z,18.50
2024-05-09T08:45:44.355Z,18.70
2024-05-09T08:48:15.218Z,18.70
2024-05-09T08:50:44.959Z,18.70
2024-05-09T08:53:15.054Z,18.80
2024-05-09T08:55:44.154Z,18.50
2024-05-09T08:58:19.937Z,18.60
2024-05-09T09:00:48.894Z,18.70
2024-05-09T09:03:19.671Z,18.50
2024-05-09T09:05:57.917Z,18.70
2024-05-09T09:08:26.634Z,18.50
2024-05-09T09:10:57.670Z,18.60
2024-05-09T09:13:25.334Z,19.20
2024-05-09T09:15:58.210Z,19.40
2024-05-09T09:18:30.695Z,19.90
2024-05-09T09:20:58.349Z,20.60
2024-05-09T09:23:30.372Z,20.70
2024-05-09T09:26:01.467Z,21.00
2024-05-09T09:28:29.961Z,21.00
2024-05-09T09:31:04.537Z,20.60
2024-05-09T09:33:32.782Z,20.60
2024-05-09T09:36:03.104Z,20.90
2024-05-09T09:38:32.466Z,21.10
2024-05-09T09:41:01.651Z,21.30
2024-05-09T09:43:29.792Z,21.60
2024-05-09T09:46:00.118Z,21.40
2024-05-09T09:48:29.941Z,21.20
2024-05-09T09:50:57.544Z,21.80
2024-05-09T09:53:24.912Z,21.70
2024-05-09T09:55:53.399Z,21.50
2024-05-09T09:58:20.876Z,21.70
2024-05-09T10:00:48.742Z,21.30
2024-05-09T10:03:16.223Z,20.50
2024-05-09T10:05:46.474Z,20.70
2024-05-09T10:08:16.801Z,20.60
2024-05-09T10:10:47.826Z,20.50
2024-05-09T10:13:15.620Z,20.80
2024-05-09T10:15:53.999Z,20.70
2024-05-09T10:18:28.134Z,20.80
2024-05-09T10:20:57.850Z,20.70
2024-05-09T10:23:26.121Z,20.90
2024-05-09T10:25:57.395Z,20.90
2024-05-09T10:28:32.822Z,21.00
2024-05-09T10:31:08.262Z,21.50
2024-05-09T10:33:52.331Z,21.90
2024-05-09T10:36:20.727Z,22.20
2024-05-09T10:38:49.975Z,22.90
2024-05-09T10:41:18.213Z,23.30
2024-05-09T10:43:45.547Z,23.70
2024-05-09T10:46:13.684Z,23.70
2024-05-09T10:48:43.747Z,23.20
2024-05-09T10:51:11.295Z,23.50
2024-05-09T10:53:42.904Z,24.30
2024-05-09T10:56:11.033Z,24.00
2024-05-09T10:58:38.471Z,24.30
2024-05-09T11:01:07.190Z,24.00
2024-05-09T11:03:35.995Z,24.10
2024-05-09T11:06:04.106Z,24.40
2024-05-09T11:08:32.956Z,24.50
2024-05-09T11:11:00.511Z,24.10
2024-05-09T11:13:36.010Z,24.30
2024-05-09T11:16:04.694Z,24.80
2024-05-09T11:18:36.563Z,25.10
2024-05-09T11:21:13.201Z,25.50
2024-05-09T11:23:41.404Z,25.30
2024-05-09T11:26:11.487Z,25.30
2024-05-09T11:28:38.756Z,25.30
2024-05-09T11:31:10.664Z,25.20
2024-05-09T11:33:46.746Z,25.60
2024-05-09T11:36:14.709Z,25.50
2024-05-09T11:38:42.737Z,26.30
2024-05-09T11:41:16.485Z,26.60
2024-05-09T11:43:43.869Z,27.00
2024-05-09T11:46:11.476Z,27.60
2024-05-09T11:48:40.166Z,27.50
2024-05-09T11:51:07.400Z,28.00
2024-05-09T11:53:34.452Z,28.00
2024-05-09T11:56:01.575Z,28.30
2024-05-09T11:58:34.383Z,27.30
2024-05-09T12:01:02.242Z,27.60
2024-05-09T12:03:30.104Z,27.70
2024-05-09T12:05:57.771Z,27.80
2024-05-09T12:08:25.228Z,27.70
2024-05-09T12:10:53.092Z,27.60
2024-05-09T12:13:20.536Z,27.30
2024-05-09T12:15:47.696Z,27.30
2024-05-09T12:18:14.970Z,26.60
2024-05-09T12:20:42.766Z,26.80
2024-05-09T12:23:10.745Z,26.70
2024-05-09T12:25:39.661Z,27.10
2024-05-09T12:28:08.282Z,27.20
2024-05-09T12:30:40.269Z,27.00
2024-05-09T12:33:12.914Z,27.50
2024-05-09T12:35:44.078Z,27.90
2024-05-09T12:38:14.319Z,28.30
2024-05-09T12:40:42.723Z,28.20
2024-05-09T12:43:11.250Z,28.50
2024-05-09T12:45:39.919Z,28.00
2024-05-09T12:48:12.280Z,28.30
2024-05-09T12:50:40.847Z,28.90
2024-05-09T12:53:08.342Z,28.50
2024-05-09T12:55:44.137Z,27.70
2024-05-09T12:58:22.109Z,28.00
2024-05-09T13:00:50.764Z,28.00
2024-05-09T13:03:18.120Z,28.20
2024-05-09T13:05:46.091Z,28.40
2024-05-09T13:08:14.251Z,28.70
2024-05-09T13:10:41.778Z,29.00
2024-05-09T13:13:12.601Z,30.00
2024-05-09T13:15:40.419Z,29.80
2024-05-09T13:18:08.756Z,29.00
2024-05-09T13:20:37.244Z,28.80
2024-05-09T13:23:07.837Z,27.90
2024-05-09T13:25:36.580Z,27.40
2024-05-09T13:28:05.111Z,27.20
2024-05-09T13:30:39.618Z,26.80
2024-05-09T13:33:15.551Z,26.10
2024-05-09T13:35:47.355Z,25.60
2024-05-09T13:38:19.358Z,25.80
2024-05-09T13:40:47.793Z,26.50
2024-05-09T13:43:15.316Z,26.10
2024-05-09T13:45:42.835Z,26.60
2024-05-09T13:48:10.579Z,27.10
2024-05-09T13:50:39.116Z,27.80
2024-05-09T13:53:07.828Z,28.30
2024-05-09T13:55:39.390Z,28.30
2024-05-09T13:58:07.543Z,28.20
2024-05-09T14:03:05.880Z,29.00
2024-05-09T14:05:33.378Z,28.20
2024-05-09T14:08:01.025Z,27.90
2024-05-09T14:10:31.248Z,27.30
2024-05-09T14:13:01.287Z,26.60
2024-05-09T14:15:28.976Z,26.20
2024-05-09T14:17:56.265Z,26.10
2024-05-09T14:20:30.570Z,26.00
2024-05-09T14:23:00.993Z,26.30
2024-05-09T14:25:29.754Z,26.50
2024-05-09T14:27:58.639Z,27.10
2024-05-09T14:30:34.668Z,27.00
2024-05-09T14:33:06.498Z,26.50
2024-05-09T14:35:34.590Z,26.90
2024-05-09T14:38:02.015Z,26.50
2024-05-09T14:40:39.102Z,26.50
2024-05-09T14:43:15.303Z,26.70
2024-05-09T14:45:44.050Z,26.90
2024-05-09T14:48:12.633Z,27.30
2024-05-09T14:50:40.869Z,28.00
2024-05-09T14:53:13.467Z,28.10
2024-05-09T14:55:42.795Z,28.50
2024-05-09T14:58:12.476Z,28.70
2024-05-09T15:00:46.235Z,28.90
2024-05-09T15:03:21.684Z,28.90
2024-05-09T15:05:50.038Z,29.10
2024-05-09T15:08:18.779Z,29.50
2024-05-09T15:10:47.332Z,29.10
2024-05-09T15:13:16.616Z,28.90
2024-05-09T15:15:45.135Z,28.90
2024-05-09T15:18:13.274Z,29.00
2024-05-09T15:20:41.120Z,28.90
2024-05-09T15:23:08.369Z,29.10
2024-05-09T15:25:36.539Z,29.50
2024-05-09T15:28:05.125Z,29.60
2024-05-09T15:30:34.049Z,29.40
2024-05-09T15:33:05.549Z,29.30
2024-05-09T15:35:34.260Z,29.10
2024-05-09T15:38:03.566Z,28.70
2024-05-09T15:40:38.238Z,28.60
2024-05-09T15:43:10.303Z,28.90
2024-05-09T15:45:39.264Z,28.80
2024-05-09T15:48:08.249Z,28.80
2024-05-09T15:50:39.796Z,28.50
2024-05-09T15:53:10.385Z,28.00
2024-05-09T15:55:38.551Z,28.10
2024-05-09T15:58:07.336Z,28.10
2024-05-09T16:00:39.542Z,28.10
2024-05-09T16:03:10.622Z,28.10
2024-05-09T16:05:38.526Z,27.60
2024-05-09T16:08:07.320Z,27.50
2024-05-09T16:10:35.467Z,27.80
2024-05-09T16:13:03.821Z,28.30
2024-05-09T16:15:31.827Z,28.20
2024-05-09T16:17:59.914Z,28.10
2024-05-09T16:20:35.127Z,27.80
2024-05-09T16:23:08.178Z,27.80
2024-05-09T16:25:35.778Z,27.80
2024-05-09T16:28:07.548Z,27.60
2024-05-09T16:30:38.267Z,27.70
2024-05-09T16:33:06.466Z,27.70
2024-05-09T16:35:34.984Z,27.50
2024-05-09T16:38:03.713Z,27.20
2024-05-09T16:40:37.833Z,27.00
2024-05-09T16:43:12.032Z,27.00
2024-05-09T16:45:41.388Z,26.70
2024-05-09T16:48:09.145Z,26.50
2024-05-09T16:50:36.836Z,26.40
2024-05-09T16:53:06.150Z,26.00
2024-05-09T16:55:34.584Z,26.00
2024-05-09T16:58:02.897Z,25.90
2024-05-09T17:00:39.409Z,25.80
2024-05-09T17:03:11.616Z,25.80
2024-05-09T17:05:40.285Z,25.60
2024-05-09T17:08:08.514Z,25.40
2024-05-09T17:10:38.685Z,25.40
2024-05-09T17:13:07.566Z,25.10
2024-05-09T17:15:37.007Z,25.00
2024-05-09T17:18:05.572Z,24.80
2024-05-09T17:20:36.009Z,24.60
2024-05-09T17:23:06.266Z,24.40
2024-05-09T17:25:34.529Z,24.40
2024-05-09T17:28:07.765Z,24.30
2024-05-09T17:30:38.478Z,24.40
2024-05-09T17:33:09.401Z,24.20
2024-05-09T17:35:38.230Z,24.20
2024-05-09T17:38:09.051Z,24.20
2024-05-09T17:40:38.090Z,24.10
2024-05-09T17:43:10.947Z,23.80
2024-05-09T17:45:40.559Z,23.70
2024-05-09T17:48:10.422Z,23.50
2024-05-09T17:50:38.779Z,23.20
2024-05-09T17:53:07.104Z,23.10
2024-05-09T17:55:35.100Z,23.10
2024-05-09T17:58:02.883Z,23.20
2024-05-09T18:00:37.691Z,23.10
2024-05-09T18:03:10.819Z,23.20
2024-05-09T18:05:38.638Z,23.00
2024-05-09T18:08:07.474Z,23.00
2024-05-09T18:10:38.162Z,22.90
2024-05-09T18:13:11.791Z,22.70
2024-05-09T18:15:39.635Z,22.60
2024-05-09T18:18:08.118Z,22.60
2024-05-09T18:20:42.819Z,22.60
2024-05-09T18:23:14.523Z,22.60
2024-05-09T18:25:43.223Z,22.50
2024-05-09T18:28:11.087Z,22.50
2024-05-09T18:30:39.096Z,22.50
2024-05-09T18:33:08.183Z,22.40
2024-05-09T18:35:36.705Z,22.30
2024-05-09T18:38:05.309Z,22.20
2024-05-09T18:40:36.132Z,22.10
2024-05-09T18:43:07.587Z,21.90
2024-05-09T18:45:39.976Z,21.90
2024-05-09T18:48:09.990Z,21.60
2024-05-09T18:50:40.268Z,21.50
2024-05-09T18:53:13.221Z,21.50
2024-05-09T18:55:42.791Z,21.30
2024-05-09T18:58:13.467Z,21.30
2024-05-09T19:00:43.861Z,21.30
2024-05-09T19:03:14.135Z,21.30
2024-05-09T19:05:44.395Z,21.20
2024-05-09T19:08:13.091Z,20.90
2024-05-09T19:10:40.840Z,20.90
2024-05-09T19:13:13.399Z,20.80
2024-05-09T19:15:42.765Z,20.80
2024-05-09T19:18:12.740Z,20.70
2024-05-09T19:20:40.654Z,20.70
2024-05-09T19:23:07.898Z,20.50
2024-05-09T19:25:36.693Z,20.50
2024-05-09T19:28:05.495Z,20.50
2024-05-09T19:30:38.935Z,20.60
2024-05-09T19:33:10.996Z,20.40
2024-05-09T19:35:39.576Z,20.30
2024-05-09T19:38:06.978Z,20.30
2024-05-09T19:40:35.251Z,20.20
2024-05-09T19:43:05.009Z,20.10
2024-05-09T19:45:34.416Z,20.10
2024-05-09T19:48:03.103Z,20.00
2024-05-09T19:50:37.558Z,20.20
2024-05-09T19:53:10.580Z,20.20
2024-05-09T19:55:38.298Z,20.10
2024-05-09T19:58:07.837Z,20.10
2024-05-09T20:00:38.155Z,19.90
2024-05-09T20:03:08.160Z,19.90
2024-05-09T20:05:36.943Z,19.70
2024-05-09T20:08:05.028Z,19.70
2024-05-09T20:10:35.013Z,19.60
2024-05-09T20:13:05.025Z,19.50
2024-05-09T20:15:35.229Z,19.50
2024-05-09T20:18:03.399Z,19.60
2024-05-09T20:20:37.530Z,19.50
2024-05-09T20:23:09.370Z,19.50
2024-05-09T20:25:36.838Z,19.30
2024-05-09T20:28:04.964Z,19.30
2024-05-09T20:30:34.492Z,19.40
2024-05-09T20:33:04.113Z,19.30
2024-05-09T20:35:33.025Z,19.30
2024-05-09T20:38:02.349Z,19.30
2024-05-09T20:40:34.714Z,19.20
2024-05-09T20:43:06.134Z,19.10
2024-05-09T20:45:34.125Z,19.00
2024-05-09T20:48:02.265Z,19.00
2024-05-09T20:50:37.161Z,19.00
2024-05-09T20:53:09.859Z,19.10
2024-05-09T20:55:37.272Z,19.00
2024-05-09T20:58:05.044Z,18.80
2024-05-09T21:00:40.184Z,18.70
2024-05-09T21:03:11.912Z,18.60
2024-05-09T21:05:40.547Z,18.60
2024-05-09T21:08:08.636Z,18.70
2024-05-09T21:10:37.219Z,18.50
2024-05-09T21:13:06.844Z,18.50
2024-05-09T21:15:35.637Z,18.60
2024-05-09T21:18:04.546Z,18.50
2024-05-09T21:20:35.114Z,18.50
2024-05-09T21:23:03.029Z,18.40
2024-05-09T21:25:30.645Z,18.40
2024-05-09T21:27:58.675Z,18.30
2024-05-09T21:30:36.902Z,18.30
2024-05-09T21:33:10.219Z,18.20
2024-05-09T21:35:39.261Z,18.20
2024-05-09T21:38:07.530Z,18.20
2024-05-09T21:40:36.607Z,18.10
2024-05-09T21:43:05.613Z,18.10
2024-05-09T21:45:36.361Z,18.10
2024-05-09T21:48:04.837Z,18.10
2024-05-09T21:50:39.219Z,18.00
2024-05-09T21:53:09.776Z,18.10
2024-05-09T21:55:36.862Z,18.00
2024-05-09T21:58:04.567Z,18.00
2024-05-09T22:00:36.690Z,18.00
2024-05-09T22:03:07.072Z,18.00
2024-05-09T22:05:35.373Z,18.00
2024-05-09T22:08:02.766Z,18.00
2024-05-09T22:10:34.598Z,18.10
2024-05-09T22:13:15.948Z,18.00
2024-05-09T22:15:43.606Z,17.90
2024-05-09T22:18:14.680Z,17.80
2024-05-09T22:20:48.446Z,17.90
2024-05-09T22:23:19.180Z,17.70
2024-05-09T22:25:55.961Z,17.70
2024-05-09T22:28:29.568Z,17.80
2024-05-09T22:31:09.399Z,17.70
2024-05-09T22:33:37.037Z,17.70
2024-05-09T22:36:09.413Z,17.60
2024-05-09T22:38:36.916Z,17.60
2024-05-09T22:41:09.703Z,17.60
2024-05-09T22:43:40.656Z,17.50
2024-05-09T22:46:07.918Z,17.50
2024-05-09T22:48:35.857Z,17.40
2024-05-09T22:51:05.246Z,17.40
2024-05-09T22:53:41.734Z,17.50
2024-05-09T22:56:10.769Z,17.50
2024-05-09T22:58:38.248Z,17.50
2024-05-09T23:01:06.532Z,17.40
2024-05-09T23:03:58.049Z,17.30
2024-05-09T23:06:31.186Z,17.20
2024-05-09T23:08:58.611Z,17.30
2024-05-09T23:11:28.938Z,17.30
2024-05-09T23:13:56.525Z,17.20
2024-05-09T23:16:24.200Z,17.10
2024-05-09T23:18:51.457Z,17.20
2024-05-09T23:21:18.896Z,17.10
2024-05-09T23:23:46.087Z,17.10
2024-05-09T23:26:22.151Z,17.10
2024-05-09T23:28:52.045Z,17.00
2024-05-09T23:31:29.864Z,16.90
2024-05-09T23:34:34.564Z,16.90
2024-05-09T23:37:06.020Z,16.90
2024-05-09T23:39:35.354Z,16.70
2024-05-09T23:42:14.322Z,16.70
2024-05-09T23:44:41.943Z,16.60
2024-05-09T23:47:11.083Z,16.60
2024-05-09T23:49:38.868Z,16.60
2024-05-09T23:52:32.947Z,16.60
2024-05-09T23:55:27.174Z,16.60
2024-05-09T23:57:58.273Z,16.50
